METAR AND TAF INFORMATION
METAR FOR LFOP
ADDS - METARS form results

(0049 UTC 11 August 2020)
Data provider http://aviationweather.gov/metar/data/
 
METAR text: LFOP 110030Z AUTO 33005KT CAVOK 22/17 Q1014
Conditions at: LFOP (ROUEN/BOOS (AUT), FR) observed 0030 UTC 11 August 2020
Temperature: 22.0°C (72°F)
Dewpoint: 17.0°C (63°F) [RH = 73%]
Pressure (altimeter): 29.94 inches Hg (1014.0 mb)
Winds: from the NNW (330 degrees) at 6 MPH (5 knots; 2.6 m/s)
Visibility: 6 or more miles (10+ km)
Ceiling: ceiling and visibility are OK
Clouds: unknown
Weather: no significant weather observed at this time

METAR text: LFOP 110000Z AUTO 31005KT CAVOK 22/17 Q1014
Conditions at: LFOP (ROUEN/BOOS (AUT), FR) observed 0000 UTC 11 August 2020
Temperature: 22.0°C (72°F)
Dewpoint: 17.0°C (63°F) [RH = 73%]
Pressure (altimeter): 29.94 inches Hg (1014.0 mb)
Winds: from the NW (310 degrees) at 6 MPH (5 knots; 2.6 m/s)
Visibility: 6 or more miles (10+ km)
Ceiling: ceiling and visibility are OK
Clouds: unknown
Weather: no significant weather observed at this time

Forecast for: LFOP (ROUEN/BOOS (AUT), FR)
Text: TAF LFOP 101700Z 1018/1118 08007KT CAVOK
Forecast period: 1800 UTC 10 August 2020 to 1800 UTC 11 August 2020
Forecast type: FROM: standard forecast or significant change
Winds: from the E (80 degrees) at 8 MPH (7 knots; 3.6 m/s)
Visibility: 6 or more miles (10+ km)
Ceiling: unknown
Clouds: missing
Weather: NSW  (no significant weather)
Text: TEMPO 1018/1118 SCT070CB
Forecast period: 1800 UTC 10 August 2020 to 1800 UTC 11 August 2020
Forecast type: TEMPORARY: The following changes expected for less than half the time period
Visibility: missing
Ceiling: at least 12,000 feet AGL
Clouds: scattered clouds at 7000 feet AGL
Weather: no significant weather forecast for this period

 AIRPORT MAP

 RUNWAY INFORMATION
Runway 04 Runway length 5577 ft Runway width 148 ft
Runway elevation 499 ft Runway displaced threshold 0 ft Runway heading 41
Runway 22 Runway length 5577 ft Runway width 148 ft
Runway elevation 512 ft Runway displaced threshold 0 ft Runway heading 221
Runway 05 Runway length 0 ft Runway width 0 ft
Runway elevation 499 ft Runway displaced threshold 0 ft Runway heading 0
Runway 23 Runway length 0 ft Runway width 0 ft
Runway elevation 507 ft Runway displaced threshold 0 ft Runway heading 0

 AIRPORT FREQUENCIES
Type APP Name ROUEN APP Frequency 118.575 MHZ
Type ATIS Name ATIS Frequency 120.725 MHZ
Type TWR Name ROUEN TWR Frequency 120.2 MHZ

 AIRPORT NEAR NAVIGATION AIDS



Powered by Virtual Airlines Manager [v2.6.2]